createdAt,value
2022-11-28T00:00:42.436Z,18.07
2022-11-28T00:01:55.807Z,18.06
2022-11-28T00:03:09.700Z,18.04
2022-11-28T00:04:13.769Z,18.09
2022-11-28T00:05:26.680Z,18.07
2022-11-28T00:06:40.244Z,18.09
2022-11-28T00:07:43.260Z,18.06
2022-11-28T00:08:57.261Z,18.06
2022-11-28T00:10:09.978Z,18.04
2022-11-28T00:11:13.845Z,18.04
2022-11-28T00:12:26.502Z,18.04
2022-11-28T00:13:40.257Z,18.06
2022-11-28T00:14:43.189Z,18.03
2022-11-28T00:15:56.766Z,18.04
2022-11-28T00:17:09.600Z,18.04
2022-11-28T00:18:13.528Z,18.04
2022-11-28T00:19:26.263Z,18.03
2022-11-28T00:20:39.781Z,18.04
2022-11-28T00:21:52.997Z,18.03
2022-11-28T00:22:56.775Z,18.03
2022-11-28T00:24:09.428Z,18.04
2022-11-28T00:25:32.748Z,18.04
2022-11-28T00:26:25.511Z,18.03
2022-11-28T00:27:58.766Z,18.04
2022-11-28T00:28:51.513Z,18.04
2022-11-28T00:29:54.236Z,18.04
2022-11-28T00:31:08.246Z,18.04
2022-11-28T00:32:21.943Z,18.06
2022-11-28T00:33:26.782Z,18.06
2022-11-28T00:34:39.702Z,18.07
2022-11-28T00:35:53.280Z,18.04
2022-11-28T00:36:55.990Z,18.07
2022-11-28T00:38:09.256Z,18.04
2022-11-28T00:39:21.891Z,18.07
2022-11-28T00:40:25.735Z,18.06
2022-11-28T00:41:38.505Z,18.04
2022-11-28T00:42:52.291Z,18.03
2022-11-28T00:43:55.294Z,18.04
2022-11-28T00:45:08.825Z,18.06
2022-11-28T00:46:21.608Z,18.03
2022-11-28T00:47:35.265Z,18.04
2022-11-28T00:48:38.025Z,18.03
2022-11-28T00:49:51.769Z,18.04
2022-11-28T00:51:04.560Z,18.02
2022-11-28T00:52:08.256Z,18.02
2022-11-28T00:53:21.123Z,18.03
2022-11-28T00:54:34.786Z,18.03
2022-11-28T00:55:37.789Z,18.02
2022-11-28T00:56:51.263Z,18.02
2022-11-28T00:58:03.995Z,18.02
2022-11-28T00:59:07.990Z,18.02
2022-11-28T01:00:20.720Z,18.02
2022-11-28T01:01:34.695Z,18.0
2022-11-28T01:04:05.042Z,18.03
2022-11-28T01:04:58.002Z,18.02
2022-11-28T01:06:11.563Z,18.02
2022-11-28T01:07:24.680Z,18.0
2022-11-28T01:08:28.562Z,18.02
2022-11-28T01:09:41.546Z,18.02
2022-11-28T01:10:55.069Z,18.0
2022-11-28T01:11:57.759Z,18.03
2022-11-28T01:13:11.162Z,18.03
2022-11-28T01:14:23.867Z,18.02
2022-11-28T01:15:48.076Z,18.03
2022-11-28T01:16:41.113Z,18.0
2022-11-28T01:17:54.580Z,18.0
2022-11-28T01:19:07.230Z,18.0
2022-11-28T01:20:11.085Z,18.02
2022-11-28T01:21:23.779Z,18.0
2022-11-28T01:22:37.573Z,17.99
2022-11-28T01:23:40.307Z,17.99
2022-11-28T01:25:13.587Z,17.99
2022-11-28T01:26:06.368Z,17.99
2022-11-28T01:27:09.057Z,17.99
2022-11-28T01:28:22.627Z,18.02
2022-11-28T01:29:35.266Z,18.02
2022-11-28T01:30:50.109Z,18.04
2022-11-28T01:31:52.962Z,18.0
2022-11-28T01:33:07.053Z,17.99
2022-11-28T01:34:09.802Z,18.03
2022-11-28T01:35:23.062Z,18.03
2022-11-28T01:36:35.796Z,18.03
2022-11-28T01:37:49.550Z,18.02
2022-11-28T01:38:52.320Z,18.0
2022-11-28T01:40:06.054Z,18.02
2022-11-28T01:41:18.748Z,17.99
2022-11-28T01:42:22.208Z,17.99
2022-11-28T01:43:35.062Z,17.99
2022-11-28T01:44:48.642Z,18.0
2022-11-28T01:45:51.413Z,17.99
2022-11-28T01:47:05.152Z,18.0
2022-11-28T01:48:17.955Z,18.0
2022-11-28T01:49:21.573Z,17.97
2022-11-28T01:50:34.268Z,17.97
2022-11-28T01:51:48.074Z,17.97
2022-11-28T01:53:00.784Z,17.96
2022-11-28T01:54:04.590Z,17.94
2022-11-28T01:55:27.126Z,17.96
2022-11-28T01:56:30.699Z,17.96
2022-11-28T01:57:33.472Z,17.96
2022-11-28T01:58:47.092Z,17.96
2022-11-28T02:00:00.424Z,17.97
2022-11-28T02:01:04.132Z,17.97
2022-11-28T02:02:16.964Z,17.96
2022-11-28T02:03:30.584Z,17.97
2022-11-28T02:04:33.560Z,17.99
2022-11-28T02:05:47.078Z,17.99
2022-11-28T02:06:59.784Z,17.97
2022-11-28T02:08:03.566Z,17.99
2022-11-28T02:09:16.450Z,17.96
2022-11-28T02:10:30.597Z,17.97
2022-11-28T02:11:33.565Z,17.97
2022-11-28T02:12:47.093Z,17.97
2022-11-28T02:13:59.788Z,17.96
2022-11-28T02:15:03.813Z,17.96
2022-11-28T02:16:16.562Z,17.94
2022-11-28T02:17:30.065Z,17.99
2022-11-28T02:18:32.834Z,17.94
2022-11-28T02:19:46.571Z,17.97
2022-11-28T02:20:59.265Z,17.94
2022-11-28T02:22:12.603Z,17.97
2022-11-28T02:23:15.317Z,17.96
2022-11-28T02:24:28.745Z,17.93
2022-11-28T02:25:51.372Z,17.99
2022-11-28T02:26:55.089Z,17.94
2022-11-28T02:27:57.954Z,17.97
2022-11-28T02:29:11.585Z,17.99
2022-11-28T02:30:14.338Z,18.0
2022-11-28T02:31:28.105Z,17.96
2022-11-28T02:32:41.070Z,18.0
2022-11-28T02:33:54.576Z,17.97
2022-11-28T02:34:57.585Z,17.97
2022-11-28T02:36:11.817Z,17.99
2022-11-28T02:37:14.611Z,17.96
2022-11-28T02:38:28.112Z,18.0
2022-11-28T02:39:40.819Z,17.96
2022-11-28T02:40:54.238Z,17.97
2022-11-28T02:41:57.223Z,17.96
2022-11-28T02:43:10.638Z,17.94
2022-11-28T02:44:43.404Z,17.93
2022-11-28T02:45:28.089Z,17.94
2022-11-28T02:46:41.372Z,17.96
2022-11-28T02:47:55.587Z,17.94
2022-11-28T02:48:58.312Z,17.93
2022-11-28T02:50:41.591Z,17.96
2022-11-28T02:51:24.512Z,17.93
2022-11-28T02:52:27.429Z,17.97
2022-11-28T02:53:41.116Z,17.99
2022-11-28T02:54:53.819Z,17.99
2022-11-28T02:55:57.614Z,17.99
2022-11-28T02:57:10.321Z,17.99
2022-11-28T02:58:23.603Z,18.0
2022-11-28T02:59:26.411Z,17.99
2022-11-28T03:00:40.285Z,17.99
2022-11-28T03:01:53.026Z,17.97
2022-11-28T03:03:06.581Z,18.0
2022-11-28T03:04:09.295Z,17.99
2022-11-28T03:05:22.585Z,17.97
2022-11-28T03:06:35.265Z,17.97
2022-11-28T03:07:40.303Z,17.97
2022-11-28T03:08:53.031Z,17.94
2022-11-28T03:10:06.621Z,17.96
2022-11-28T03:11:09.493Z,17.94
2022-11-28T03:12:23.218Z,17.94
2022-11-28T03:13:56.460Z,17.94
2022-11-28T03:14:40.241Z,17.92
2022-11-28T03:15:53.025Z,17.94
2022-11-28T03:17:06.612Z,17.94
2022-11-28T03:18:09.355Z,17.94
2022-11-28T03:19:32.791Z,17.93
2022-11-28T03:20:35.502Z,17.94
2022-11-28T03:21:39.109Z,17.94
2022-11-28T03:22:51.860Z,17.94
2022-11-28T03:24:05.695Z,17.96
2022-11-28T03:25:08.406Z,17.97
2022-11-28T03:26:22.130Z,17.96
2022-11-28T03:27:34.790Z,17.94
2022-11-28T03:28:48.108Z,17.96
2022-11-28T03:29:50.912Z,17.92
2022-11-28T03:31:06.193Z,17.93
2022-11-28T03:32:09.177Z,17.93
2022-11-28T03:33:22.644Z,17.93
2022-11-28T03:34:35.351Z,17.94
2022-11-28T03:35:49.107Z,17.9
2022-11-28T03:36:51.852Z,17.92
2022-11-28T03:38:05.600Z,17.93
2022-11-28T03:39:18.300Z,17.93
2022-11-28T03:40:21.631Z,17.93
2022-11-28T03:41:34.294Z,17.92
2022-11-28T03:42:49.083Z,17.92
2022-11-28T03:43:51.823Z,17.9
2022-11-28T03:45:05.220Z,17.92
2022-11-28T03:46:17.973Z,17.87
2022-11-28T03:47:21.636Z,17.9
2022-11-28T03:48:34.520Z,17.89
2022-11-28T03:49:48.606Z,17.89
2022-11-28T03:50:51.548Z,17.87
2022-11-28T03:52:05.141Z,17.9
2022-11-28T03:53:18.069Z,17.9
2022-11-28T03:54:21.659Z,17.86
2022-11-28T03:55:34.371Z,17.89
2022-11-28T03:56:48.126Z,17.87
2022-11-28T03:57:50.870Z,17.86
2022-11-28T03:59:04.620Z,17.89
2022-11-28T04:00:17.342Z,17.86
2022-11-28T04:01:30.682Z,17.89
2022-11-28T04:02:33.548Z,17.86
2022-11-28T04:03:47.114Z,17.89
2022-11-28T04:05:09.654Z,17.86
2022-11-28T04:06:03.123Z,17.89
2022-11-28T04:07:15.856Z,17.87
2022-11-28T04:08:29.583Z,17.89
2022-11-28T04:09:32.334Z,17.87
2022-11-28T04:10:46.138Z,17.9
2022-11-28T04:11:58.953Z,17.87
2022-11-28T04:13:02.636Z,17.89
2022-11-28T04:14:15.352Z,17.86
2022-11-28T04:15:29.141Z,17.85
2022-11-28T04:16:32.035Z,17.86
2022-11-28T04:17:45.627Z,17.87
2022-11-28T04:18:58.299Z,17.87
2022-11-28T04:20:12.130Z,17.86
2022-11-28T04:21:14.845Z,17.85
2022-11-28T04:22:28.197Z,17.85
2022-11-28T04:23:41.005Z,17.86
2022-11-28T04:24:44.975Z,17.85
2022-11-28T04:25:57.961Z,17.87
2022-11-28T04:27:11.746Z,17.86
2022-11-28T04:28:14.515Z,17.83
2022-11-28T04:29:28.183Z,17.85
2022-11-28T04:30:40.870Z,17.85
2022-11-28T04:31:44.765Z,17.86
2022-11-28T04:32:57.599Z,17.85
2022-11-28T04:34:11.179Z,17.83
2022-11-28T04:35:13.951Z,17.87
2022-11-28T04:36:27.670Z,17.87
2022-11-28T04:37:40.386Z,17.89
2022-11-28T04:38:54.139Z,17.87
2022-11-28T04:39:56.882Z,17.86
2022-11-28T04:41:10.607Z,17.85
2022-11-28T04:42:23.421Z,17.85
2022-11-28T04:43:27.131Z,17.86
2022-11-28T04:44:39.893Z,17.83
2022-11-28T04:45:53.721Z,17.85
2022-11-28T04:46:56.574Z,17.85
2022-11-28T04:48:10.255Z,17.86
2022-11-28T04:49:23.023Z,17.83
2022-11-28T04:50:26.651Z,17.85
2022-11-28T04:51:39.364Z,17.83
2022-11-28T04:52:53.093Z,17.83
2022-11-28T04:53:56.280Z,17.85
2022-11-28T04:55:11.131Z,17.86
2022-11-28T04:56:25.004Z,17.82
2022-11-28T04:57:28.634Z,17.83
2022-11-28T04:58:41.345Z,17.82
2022-11-28T04:59:55.171Z,17.82
2022-11-28T05:00:58.043Z,17.83
2022-11-28T05:02:11.682Z,17.83
2022-11-28T05:03:36.758Z,17.83
2022-11-28T05:04:32.625Z,17.85
2022-11-28T05:05:45.302Z,17.85
2022-11-28T05:06:49.153Z,17.86
2022-11-28T05:08:01.923Z,17.85
2022-11-28T05:09:15.633Z,17.83
2022-11-28T05:10:18.431Z,17.86
2022-11-28T05:11:32.144Z,17.83
2022-11-28T05:12:44.819Z,17.85
2022-11-28T05:13:48.128Z,17.85
2022-11-28T05:15:00.825Z,17.85
2022-11-28T05:16:14.149Z,17.87
2022-11-28T05:17:26.855Z,17.83
2022-11-28T05:18:30.623Z,17.83
2022-11-28T05:19:43.335Z,17.86
2022-11-28T05:20:56.644Z,17.85
2022-11-28T05:21:59.523Z,17.85
2022-11-28T05:23:33.131Z,17.85
2022-11-28T05:24:30.738Z,17.82
2022-11-28T05:25:35.057Z,17.85
2022-11-28T05:26:47.716Z,17.86
2022-11-28T05:27:51.161Z,17.89
2022-11-28T05:29:03.869Z,17.87
2022-11-28T05:30:17.668Z,17.89
2022-11-28T05:31:20.416Z,17.92
2022-11-28T05:32:34.126Z,17.89
2022-11-28T05:33:46.838Z,17.92
2022-11-28T05:35:00.152Z,17.92
2022-11-28T05:36:02.877Z,17.9
2022-11-28T05:37:16.716Z,17.92
2022-11-28T05:38:29.455Z,17.93
2022-11-28T05:39:33.145Z,17.9
2022-11-28T05:40:45.828Z,17.9
2022-11-28T05:41:59.137Z,17.92
2022-11-28T05:43:01.858Z,17.92
2022-11-28T05:44:15.637Z,17.89
2022-11-28T05:45:28.339Z,17.89
2022-11-28T05:46:32.234Z,17.87
2022-11-28T05:47:45.155Z,17.9
2022-11-28T05:48:58.651Z,17.9
2022-11-28T05:50:01.363Z,17.87
2022-11-28T05:51:15.142Z,17.87
2022-11-28T05:52:27.791Z,17.9
2022-11-28T05:53:41.164Z,17.9
2022-11-28T05:54:44.008Z,17.89
2022-11-28T05:55:57.635Z,17.92
2022-11-28T05:57:10.342Z,17.89
2022-11-28T05:58:14.139Z,17.9
2022-11-28T05:59:26.805Z,17.9
2022-11-28T06:00:40.135Z,17.89
2022-11-28T06:01:42.957Z,17.86
2022-11-28T06:03:01.161Z,17.9
2022-11-28T06:04:04.380Z,17.89
2022-11-28T06:05:40.907Z,17.89
2022-11-28T06:06:24.887Z,17.9
2022-11-28T06:07:37.549Z,17.93
2022-11-28T06:08:51.126Z,18.0
2022-11-28T06:09:53.799Z,17.89
2022-11-28T06:11:07.332Z,17.89
2022-11-28T06:12:19.925Z,17.92
2022-11-28T06:13:23.137Z,17.96
2022-11-28T06:14:35.689Z,18.0
2022-11-28T06:15:49.183Z,18.0
2022-11-28T06:17:01.791Z,18.0
2022-11-28T06:18:05.652Z,17.94
2022-11-28T06:19:18.226Z,17.83
2022-11-28T06:20:31.656Z,17.73
2022-11-28T06:21:34.504Z,17.61
2022-11-28T06:22:47.641Z,17.42
2022-11-28T06:24:00.287Z,17.43
2022-11-28T06:25:06.181Z,17.52
2022-11-28T06:26:18.792Z,17.61
2022-11-28T06:27:32.206Z,17.71
2022-11-28T06:28:34.817Z,17.83
2022-11-28T06:29:48.134Z,17.97
2022-11-28T06:31:00.665Z,18.09
2022-11-28T06:32:04.184Z,18.23
2022-11-28T06:33:16.868Z,18.36
2022-11-28T06:34:30.181Z,18.48
2022-11-28T06:35:42.661Z,18.58
2022-11-28T06:36:46.139Z,18.66
2022-11-28T06:37:58.621Z,18.78
2022-11-28T06:39:12.177Z,18.87
2022-11-28T06:40:14.686Z,18.98
2022-11-28T06:41:28.197Z,19.06
2022-11-28T06:42:40.623Z,19.13
2022-11-28T06:43:53.701Z,19.2
2022-11-28T06:44:56.189Z,19.29
2022-11-28T06:46:13.149Z,19.33
2022-11-28T06:47:18.385Z,19.4
2022-11-28T06:48:32.168Z,19.47
2022-11-28T06:49:34.631Z,19.53
2022-11-28T06:50:47.667Z,19.6
2022-11-28T06:52:00.122Z,19.64
2022-11-28T06:53:13.157Z,19.67
2022-11-28T06:55:44.189Z,19.77
2022-11-28T06:56:36.807Z,19.81
2022-11-28T06:57:50.171Z,19.87
2022-11-28T06:59:02.522Z,19.9
2022-11-28T07:00:05.701Z,19.96
2022-11-28T07:01:18.238Z,20.0
2022-11-28T07:02:31.741Z,20.03
2022-11-28T07:03:34.383Z,20.06
2022-11-28T07:04:47.652Z,20.1
2022-11-28T07:06:00.015Z,20.13
2022-11-28T07:07:16.489Z,20.17
2022-11-28T07:08:19.417Z,20.21
2022-11-28T07:09:32.656Z,20.21
2022-11-28T07:10:35.176Z,20.25
2022-11-28T07:11:48.160Z,20.27
2022-11-28T07:13:05.195Z,20.31
2022-11-28T07:14:09.198Z,20.31
2022-11-28T07:15:21.480Z,20.32
2022-11-28T07:16:24.838Z,20.35
2022-11-28T07:17:37.215Z,20.39
2022-11-28T07:18:50.158Z,20.39
2022-11-28T07:20:02.441Z,20.41
2022-11-28T07:21:05.682Z,20.41
2022-11-28T07:22:18.001Z,20.42
2022-11-28T07:23:31.682Z,20.44
2022-11-28T07:24:34.086Z,20.45
2022-11-28T07:25:47.196Z,20.48
2022-11-28T07:26:59.540Z,20.49
2022-11-28T07:28:12.673Z,20.51
2022-11-28T07:29:15.067Z,20.51
2022-11-28T07:30:28.231Z,20.55
2022-11-28T07:31:40.704Z,20.54
2022-11-28T07:32:44.262Z,20.54
2022-11-28T07:33:56.582Z,20.58
2022-11-28T07:35:09.695Z,20.59
2022-11-28T07:36:22.039Z,20.59
2022-11-28T07:37:25.176Z,20.61
2022-11-28T07:38:37.447Z,20.62
2022-11-28T07:39:50.669Z,20.64
2022-11-28T07:40:53.108Z,20.64
2022-11-28T07:42:06.194Z,20.64
2022-11-28T07:43:18.517Z,20.64
2022-11-28T07:44:21.683Z,20.64
2022-11-28T07:45:53.731Z,20.66
2022-11-28T07:46:43.721Z,20.66
2022-11-28T07:47:56.168Z,20.69
2022-11-28T07:49:09.180Z,20.72
2022-11-28T07:50:11.570Z,20.75
2022-11-28T07:51:24.692Z,20.73
2022-11-28T07:52:36.984Z,20.72
2022-11-28T07:53:50.192Z,20.75
2022-11-28T07:54:52.562Z,20.73
2022-11-28T07:56:05.670Z,20.75
2022-11-28T07:57:18.000Z,20.75
2022-11-28T07:58:31.190Z,20.76
2022-11-28T07:59:33.650Z,20.75
2022-11-28T08:00:46.664Z,20.78
2022-11-28T08:01:58.929Z,20.78
2022-11-28T08:03:02.166Z,20.78
2022-11-28T08:04:14.498Z,20.82
2022-11-28T08:05:27.712Z,20.8
2022-11-28T08:06:30.142Z,20.82
2022-11-28T08:07:43.222Z,20.8
2022-11-28T08:08:55.695Z,20.82
2022-11-28T08:10:08.681Z,20.8
2022-11-28T08:11:11.123Z,20.82
2022-11-28T08:12:24.169Z,20.82
2022-11-28T08:13:36.416Z,20.82
2022-11-28T08:14:40.719Z,20.82
2022-11-28T08:15:53.533Z,20.82
2022-11-28T08:17:06.758Z,20.83
2022-11-28T08:18:09.152Z,20.85
2022-11-28T08:19:24.797Z,20.86
2022-11-28T08:20:39.311Z,20.89
2022-11-28T08:21:41.706Z,20.88
2022-11-28T08:22:54.819Z,20.89
2022-11-28T08:23:57.259Z,20.88
2022-11-28T08:25:10.308Z,20.89
2022-11-28T08:26:25.969Z,20.89
2022-11-28T08:27:32.291Z,20.92
2022-11-28T08:28:44.600Z,20.92
2022-11-28T08:29:51.828Z,20.92
2022-11-28T08:30:55.870Z,20.92
2022-11-28T08:32:08.827Z,20.93
2022-11-28T08:33:21.096Z,20.93
2022-11-28T08:34:34.321Z,20.93
2022-11-28T08:35:36.707Z,20.93
2022-11-28T08:36:49.832Z,20.95
2022-11-28T08:38:02.356Z,20.95
2022-11-28T08:39:23.537Z,20.96
2022-11-28T08:40:16.831Z,20.97
2022-11-28T08:41:29.814Z,20.99
2022-11-28T08:42:42.046Z,20.96
2022-11-28T08:43:45.326Z,20.99
2022-11-28T08:44:57.660Z,21.0
2022-11-28T08:46:10.925Z,21.0
2022-11-28T08:47:13.397Z,21.01
2022-11-28T08:49:53.183Z,20.99
2022-11-28T08:50:48.000Z,21.01
2022-11-28T08:52:01.209Z,21.0
2022-11-28T08:53:07.762Z,21.03
2022-11-28T08:54:21.187Z,21.03
2022-11-28T08:55:31.727Z,21.03
2022-11-28T08:56:35.688Z,21.04
2022-11-28T08:57:47.963Z,21.04
2022-11-28T08:59:01.741Z,21.07
2022-11-28T09:00:04.084Z,21.07
2022-11-28T09:01:17.230Z,21.07
2022-11-28T09:02:29.482Z,21.07
2022-11-28T09:03:42.764Z,21.07
2022-11-28T09:04:46.090Z,21.07
2022-11-28T09:05:59.215Z,21.09
2022-11-28T09:07:11.464Z,21.09
2022-11-28T09:08:14.712Z,21.11
2022-11-28T09:09:30.165Z,21.11
2022-11-28T09:10:36.220Z,21.1
2022-11-28T09:11:48.502Z,21.1
2022-11-28T09:13:01.782Z,21.13
2022-11-28T09:14:04.112Z,21.11
2022-11-28T09:15:17.232Z,21.1
2022-11-28T09:16:29.535Z,21.13
2022-11-28T09:17:32.717Z,21.11
2022-11-28T09:18:44.952Z,21.13
2022-11-28T09:19:58.202Z,21.14
2022-11-28T09:21:10.582Z,21.13
2022-11-28T09:22:13.729Z,21.13
2022-11-28T09:23:25.945Z,21.14
2022-11-28T09:24:39.234Z,21.16
2022-11-28T09:25:41.706Z,21.14
2022-11-28T09:26:58.312Z,21.16
2022-11-28T09:28:10.526Z,21.19
2022-11-28T09:29:14.219Z,21.17
2022-11-28T09:30:26.478Z,21.2
2022-11-28T09:31:43.138Z,21.17
2022-11-28T09:32:49.473Z,21.17
2022-11-28T09:33:52.718Z,21.2
2022-11-28T09:35:04.931Z,21.21
2022-11-28T09:36:18.216Z,21.19
2022-11-28T09:37:20.584Z,21.21
2022-11-28T09:38:33.682Z,21.17
2022-11-28T09:40:11.459Z,21.2
2022-11-28T09:40:56.192Z,21.19
2022-11-28T09:42:08.389Z,21.17
2022-11-28T09:43:11.826Z,21.19
2022-11-28T09:44:24.112Z,21.17
2022-11-28T09:45:37.227Z,21.17
2022-11-28T09:46:49.441Z,21.14
2022-11-28T09:47:52.720Z,21.16
2022-11-28T09:49:05.030Z,21.13
2022-11-28T09:50:18.210Z,21.14
2022-11-28T09:51:20.586Z,21.16
2022-11-28T09:52:33.784Z,21.16
2022-11-28T09:53:46.060Z,21.16
2022-11-28T09:54:59.199Z,21.16
2022-11-28T09:56:01.562Z,21.19
2022-11-28T09:57:14.732Z,21.16
2022-11-28T09:58:27.011Z,21.17
2022-11-28T09:59:30.217Z,21.13
2022-11-28T10:00:42.857Z,21.14
2022-11-28T10:01:56.198Z,21.19
2022-11-28T10:02:58.545Z,21.17
2022-11-28T10:04:12.301Z,21.19
2022-11-28T10:05:24.713Z,21.19
2022-11-28T10:06:37.742Z,21.17
2022-11-28T10:07:40.185Z,21.19
2022-11-28T10:08:53.724Z,21.2
2022-11-28T10:10:05.988Z,21.17
2022-11-28T10:11:09.204Z,21.19
2022-11-28T10:12:21.665Z,21.21
2022-11-28T10:13:59.886Z,21.21
2022-11-28T10:14:39.211Z,21.23
2022-11-28T10:15:51.497Z,21.26
2022-11-28T10:17:04.744Z,21.24
2022-11-28T10:18:17.221Z,21.26
2022-11-28T10:19:52.287Z,21.27
2022-11-28T10:20:36.244Z,21.3
2022-11-28T10:21:38.630Z,21.31
2022-11-28T10:22:51.711Z,21.31
2022-11-28T10:24:05.646Z,21.31
2022-11-28T10:25:09.237Z,21.31
2022-11-28T10:26:21.635Z,21.33
2022-11-28T10:27:34.701Z,21.31
2022-11-28T10:28:37.047Z,21.33
2022-11-28T10:29:50.726Z,21.31
2022-11-28T10:31:03.061Z,21.33
2022-11-28T10:32:16.731Z,21.34
2022-11-28T10:33:19.062Z,21.34
2022-11-28T10:34:32.225Z,21.33
2022-11-28T10:35:44.459Z,21.33
2022-11-28T10:36:48.217Z,21.36
2022-11-28T10:38:01.475Z,21.34
2022-11-28T10:39:15.272Z,21.34
2022-11-28T10:40:17.645Z,21.36
2022-11-28T10:41:30.756Z,21.34
2022-11-28T10:42:42.971Z,21.34
2022-11-28T10:43:56.223Z,21.37
2022-11-28T10:44:59.273Z,21.34
2022-11-28T10:46:12.294Z,21.36
2022-11-28T10:47:24.640Z,21.34
2022-11-28T10:48:39.895Z,21.39
2022-11-28T10:49:43.274Z,21.37
2022-11-28T10:50:46.738Z,21.39
2022-11-28T10:51:58.996Z,21.39
2022-11-28T10:53:12.216Z,21.39
2022-11-28T10:54:24.469Z,21.39
2022-11-28T10:55:27.740Z,21.43
2022-11-28T10:56:40.164Z,21.39
2022-11-28T10:57:53.211Z,21.43
2022-11-28T10:58:55.513Z,21.4
2022-11-28T11:00:08.713Z,21.43
2022-11-28T11:01:21.041Z,21.4
2022-11-28T11:02:34.257Z,21.41
2022-11-28T11:03:38.374Z,21.41
2022-11-28T11:04:51.874Z,21.41
2022-11-28T11:05:54.299Z,21.4
2022-11-28T11:07:10.186Z,21.41
2022-11-28T11:08:16.232Z,21.44
2022-11-28T11:09:29.255Z,21.43
2022-11-28T11:10:41.503Z,21.44
2022-11-28T11:11:54.761Z,21.44
2022-11-28T11:12:57.522Z,21.44
2022-11-28T11:14:10.746Z,21.44
2022-11-28T11:15:22.990Z,21.43
2022-11-28T11:16:26.799Z,21.44
2022-11-28T11:17:39.209Z,21.44
2022-11-28T11:18:52.271Z,21.41
2022-11-28T11:19:54.656Z,21.43
2022-11-28T11:21:07.784Z,21.44
2022-11-28T11:22:20.070Z,21.44
2022-11-28T11:23:38.072Z,21.41
2022-11-28T11:24:40.876Z,21.43
2022-11-28T11:25:44.249Z,21.41
2022-11-28T11:26:56.456Z,21.43
2022-11-28T11:28:09.734Z,21.43
2022-11-28T11:29:22.057Z,21.43
2022-11-28T11:30:26.060Z,21.4
2022-11-28T11:31:39.426Z,21.4
2022-11-28T11:32:52.793Z,21.41
2022-11-28T11:33:55.097Z,21.4
2022-11-28T11:35:08.276Z,21.39
2022-11-28T11:36:20.470Z,21.37
2022-11-28T11:37:23.739Z,21.39
2022-11-28T11:38:38.109Z,21.39
2022-11-28T11:39:51.301Z,21.37
2022-11-28T11:40:53.671Z,21.39
2022-11-28T11:42:07.287Z,21.39
2022-11-28T11:43:19.509Z,21.36
2022-11-28T11:44:32.721Z,21.37
2022-11-28T11:45:35.107Z,21.37
2022-11-28T11:46:48.303Z,21.37
2022-11-28T11:48:00.659Z,21.36
2022-11-28T11:49:04.259Z,21.36
2022-11-28T11:50:16.467Z,21.36
2022-11-28T11:51:30.479Z,21.36
2022-11-28T11:52:35.194Z,21.34
2022-11-28T11:53:48.237Z,21.31
2022-11-28T11:55:00.447Z,21.31
2022-11-28T11:56:03.771Z,21.31
2022-11-28T11:57:32.581Z,21.3
2022-11-28T11:58:27.249Z,21.31
2022-11-28T11:59:39.481Z,21.3
2022-11-28T12:00:43.755Z,21.31
2022-11-28T12:01:55.977Z,21.3
2022-11-28T12:03:09.341Z,21.3
2022-11-28T12:04:37.125Z,21.3
2022-11-28T12:05:27.260Z,21.31
2022-11-28T12:06:39.597Z,21.3
2022-11-28T12:07:42.778Z,21.29
2022-11-28T12:08:55.201Z,21.29
2022-11-28T12:10:08.311Z,21.31
2022-11-28T12:11:20.724Z,21.3
2022-11-28T12:12:23.782Z,21.3
2022-11-28T12:13:35.999Z,21.29
2022-11-28T12:14:49.275Z,21.29
2022-11-28T12:15:51.805Z,21.26
2022-11-28T12:17:25.733Z,21.26
2022-11-28T12:18:15.516Z,21.24
2022-11-28T12:19:28.036Z,21.27
2022-11-28T12:20:41.549Z,21.26
2022-11-28T12:21:43.909Z,21.24
2022-11-28T12:22:58.254Z,21.24
2022-11-28T12:24:00.843Z,21.26
2022-11-28T12:25:14.277Z,21.23
2022-11-28T12:26:26.537Z,21.24
2022-11-28T12:27:39.747Z,21.24
2022-11-28T12:28:42.160Z,21.21
2022-11-28T12:29:55.260Z,21.23
2022-11-28T12:31:07.532Z,21.2
2022-11-28T12:32:20.800Z,21.24
2022-11-28T12:33:23.417Z,21.24
2022-11-28T12:34:36.829Z,21.26
2022-11-28T12:35:49.247Z,21.26
2022-11-28T12:36:52.792Z,21.26
2022-11-28T12:38:11.359Z,21.29
2022-11-28T12:39:34.432Z,21.3
2022-11-28T12:40:26.938Z,21.31
2022-11-28T12:41:39.953Z,21.31
2022-11-28T12:42:42.366Z,21.34
2022-11-28T12:43:55.441Z,21.37
2022-11-28T12:45:07.714Z,21.36
2022-11-28T12:46:21.007Z,21.36
2022-11-28T12:47:23.503Z,21.34
2022-11-28T12:48:36.401Z,21.39
2022-11-28T12:49:48.664Z,21.36
2022-11-28T12:50:51.927Z,21.39
2022-11-28T12:52:04.244Z,21.39
2022-11-28T12:53:17.409Z,21.39
2022-11-28T12:54:29.694Z,21.39
2022-11-28T12:55:32.983Z,21.39
2022-11-28T12:56:45.196Z,21.41
2022-11-28T12:58:00.481Z,21.43
2022-11-28T12:59:05.263Z,21.4
2022-11-28T13:00:38.428Z,21.41
2022-11-28T13:01:21.006Z,21.43
2022-11-28T13:02:33.924Z,21.44
2022-11-28T13:03:46.933Z,21.44
2022-11-28T13:04:58.991Z,21.46
2022-11-28T13:06:02.450Z,21.47
2022-11-28T13:08:47.918Z,21.46
2022-11-28T13:09:31.218Z,21.46
2022-11-28T13:10:43.554Z,21.5
2022-11-28T13:11:56.449Z,21.47
2022-11-28T13:12:58.746Z,21.48
2022-11-28T13:14:21.507Z,21.5
2022-11-28T13:15:23.790Z,21.53
2022-11-28T13:16:37.115Z,21.51
2022-11-28T13:17:39.648Z,21.53
2022-11-28T13:18:52.778Z,21.53
2022-11-28T13:20:05.038Z,21.54
2022-11-28T13:21:18.006Z,21.54
2022-11-28T13:22:20.300Z,21.54
2022-11-28T13:23:33.486Z,21.55
2022-11-28T13:24:45.721Z,21.54
2022-11-28T13:25:48.976Z,21.57
2022-11-28T13:27:01.154Z,21.57
2022-11-28T13:28:14.011Z,21.55
2022-11-28T13:29:26.263Z,21.57
2022-11-28T13:30:29.476Z,21.55
2022-11-28T13:31:41.741Z,21.55
2022-11-28T13:32:55.501Z,21.55
2022-11-28T13:33:58.012Z,21.55
2022-11-28T13:35:31.022Z,21.58
2022-11-28T13:38:50.289Z,21.6
2022-11-28T13:40:02.601Z,21.61
2022-11-28T13:41:05.979Z,21.65
2022-11-28T13:42:43.835Z,21.67
2022-11-28T13:43:35.983Z,21.68
2022-11-28T13:44:28.440Z,21.71
2022-11-28T13:45:41.484Z,21.75
2022-11-28T13:46:53.630Z,21.75
2022-11-28T13:48:07.007Z,21.77
2022-11-28T13:49:19.653Z,21.77
2022-11-28T13:50:23.502Z,21.78
2022-11-28T13:51:35.715Z,21.78
2022-11-28T13:52:39.007Z,21.75
2022-11-28T13:53:51.278Z,21.75
2022-11-28T13:55:04.494Z,21.75
2022-11-28T13:56:06.798Z,21.75
2022-11-28T13:57:21.556Z,21.75
2022-11-28T13:58:34.016Z,21.75
2022-11-28T13:59:36.984Z,21.75
2022-11-28T14:00:49.200Z,21.72
2022-11-28T14:02:02.550Z,21.74
2022-11-28T14:03:14.851Z,21.75
2022-11-28T14:04:20.468Z,21.72
2022-11-28T14:05:32.682Z,21.72
2022-11-28T14:06:36.063Z,21.71
2022-11-28T14:07:48.543Z,21.72
2022-11-28T14:09:01.502Z,21.7
2022-11-28T14:10:13.745Z,21.71
2022-11-28T14:11:20.183Z,21.71
2022-11-28T14:12:25.078Z,21.68
2022-11-28T14:13:38.208Z,21.71
2022-11-28T14:14:50.503Z,21.71
2022-11-28T14:16:03.535Z,21.72
2022-11-28T14:17:06.029Z,21.68
2022-11-28T14:18:54.565Z,21.71
2022-11-28T14:19:28.851Z,21.7
2022-11-28T14:20:41.131Z,21.72
2022-11-28T14:21:44.499Z,21.72
2022-11-28T14:22:56.720Z,21.71
2022-11-28T14:24:10.052Z,21.75
2022-11-28T14:25:22.216Z,21.74
2022-11-28T14:26:25.515Z,21.72
2022-11-28T14:27:37.791Z,21.72
2022-11-28T14:28:51.021Z,21.72
2022-11-28T14:29:53.312Z,21.72
2022-11-28T14:31:09.051Z,21.72
2022-11-28T14:32:30.034Z,21.75
2022-11-28T14:33:23.990Z,21.72
2022-11-28T14:34:36.195Z,21.72
2022-11-28T14:35:49.530Z,21.72
2022-11-28T14:37:01.831Z,21.77
2022-11-28T14:38:05.002Z,21.75
2022-11-28T14:39:17.232Z,21.74
2022-11-28T14:41:47.418Z,21.75
2022-11-28T14:43:00.953Z,21.77
2022-11-28T14:44:04.466Z,21.77
2022-11-28T14:45:08.583Z,21.75
2022-11-28T14:46:21.941Z,21.78
2022-11-28T14:47:24.266Z,21.77
2022-11-28T14:48:37.513Z,21.8
2022-11-28T14:49:49.794Z,21.78
2022-11-28T14:50:59.369Z,21.77
2022-11-28T14:52:23.092Z,21.77
2022-11-28T14:53:14.936Z,21.77
2022-11-28T14:54:27.155Z,21.8
2022-11-28T14:55:40.419Z,21.78
2022-11-28T14:56:42.673Z,21.81
2022-11-28T14:57:55.926Z,21.8
2022-11-28T14:59:08.217Z,21.81
2022-11-28T15:00:11.505Z,21.82
2022-11-28T15:01:23.963Z,21.82
2022-11-28T15:02:37.006Z,21.8
2022-11-28T15:03:49.540Z,21.78
2022-11-28T15:04:52.943Z,21.8
2022-11-28T15:06:05.184Z,21.78
2022-11-28T15:07:18.450Z,21.8
2022-11-28T15:08:20.908Z,21.81
2022-11-28T15:09:54.944Z,21.78
2022-11-28T15:10:47.426Z,21.81
2022-11-28T15:11:49.690Z,21.8
2022-11-28T15:13:02.953Z,21.82